ADDS METAR Data INFO
IDs: Format: Raw Decoded Include TAF

Data at: 1847 UTC 17 Oct 2017

KSTF 171835Z AUTO 07004KT 10SM CLR 21/08 A3028 RMK AO2
KSTF 171815Z AUTO 00000KT 10SM CLR 21/08 A3029 RMK AO2
KSTF 171755Z AUTO 11006KT 10SM CLR 20/08 A3030 RMK AO2
KSTF 171735Z AUTO 07008KT 10SM CLR 20/08 A3031 RMK AO2
KSTF 171715Z AUTO 00000KT 10SM CLR 18/07 A3032 RMK AO2
KSTF 171655Z AUTO 11006KT 10SM CLR 18/08 A3033 RMK AO2
KSTF 171635Z AUTO 13005KT 10SM CLR 17/07 A3033 RMK AO2
KSTF 171615Z AUTO 11004KT 10SM CLR 17/07 A3034 RMK AO2
KSTF 171555Z AUTO 12006KT 10SM CLR 16/07 A3034 RMK AO2
KSTF 171535Z AUTO 12004KT 10SM CLR 16/08 A3034 RMK AO2
KSTF 171515Z AUTO 12005KT 10SM CLR 15/08 A3034 RMK AO2
KSTF 171455Z AUTO 08009KT 10SM CLR 14/08 A3034 RMK AO2
KSTF 171435Z AUTO 10004KT 10SM CLR 13/08 A3033 RMK AO2
KSTF 171415Z AUTO 07009KT 10SM CLR 12/07 A3033 RMK AO2
KSTF 171355Z AUTO 07008KT 10SM CLR 11/07 A3033 RMK AO2 P0001
KSTF 171335Z AUTO 06007KT 10SM CLR 11/07 A3032 RMK AO2 P0001
KSTF 171315Z AUTO 07006KT 10SM CLR 10/07 A3031 RMK AO2 P0001
KSTF 171255Z AUTO 02003KT 10SM CLR 08/07 A3031 RMK AO2
KSTF 171235Z AUTO 00000KT 10SM CLR 07/06 A3031 RMK AO2
KSTF 171215Z AUTO 35003KT 10SM CLR 07/06 A3030 RMK AO2
KSTF 171155Z AUTO 33004KT 10SM CLR 07/06 A3030 RMK AO2
KSTF 171135Z AUTO 01003KT 10SM CLR 07/06 A3029 RMK AO2
KSTF 171115Z AUTO 34003KT 10SM CLR 07/06 A3029 RMK AO2
KSTF 171055Z AUTO 35003KT 10SM CLR 07/06 A3028 RMK AO2
KSTF 171035Z AUTO 34003KT 10SM CLR 07/06 A3028 RMK AO2
KSTF 171015Z AUTO 35003KT 10SM CLR 07/06 A3027 RMK AO2
KSTF 170955Z AUTO 35003KT 10SM CLR 07/06 A3027 RMK AO2 P0001
KSTF 170935Z AUTO 34003KT 10SM CLR 07/06 A3027 RMK AO2 P0001
KSTF 170915Z AUTO 33003KT 10SM CLR 07/06 A3027 RMK AO2 P0001
KSTF 170855Z AUTO 00000KT 10SM CLR 07/06 A3027 RMK AO2
KSTF 170835Z AUTO 01003KT 10SM CLR 07/06 A3027 RMK AO2
KSTF 170815Z AUTO 00000KT 10SM CLR 07/06 A3027 RMK AO2
KSTF 170755Z AUTO 00000KT 10SM CLR 08/07 A3027 RMK AO2
KSTF 170735Z AUTO 35003KT 10SM CLR 08/07 A3027 RMK AO2
KSTF 170715Z AUTO 36003KT 10SM CLR 08/07 A3027 RMK AO2
KSTF 170655Z AUTO 35003KT 10SM CLR 07/07 A3027 RMK AO2
KSTF 170635Z AUTO 00000KT 10SM CLR 07/06 A3027 RMK AO2
KSTF 170615Z AUTO 00000KT 10SM CLR 07/07 A3027 RMK AO2
KSTF 170555Z AUTO 00000KT 10SM CLR 08/06 A3027 RMK AO2
KSTF 170535Z AUTO 35003KT 10SM CLR 08/07 A3027 RMK AO2
KSTF 170515Z AUTO 00000KT 10SM CLR 09/07 A3028 RMK AO2
KSTF 170455Z AUTO 00000KT 10SM CLR 10/07 A3028 RMK AO2 P0001
KSTF 170435Z AUTO 00000KT 10SM CLR 10/07 A3028 RMK AO2
KSTF 170415Z AUTO 00000KT 10SM CLR 10/07 A3028 RMK AO2
KSTF 170355Z AUTO 36003KT 10SM CLR 10/07 A3028 RMK AO2
KSTF 170335Z AUTO 00000KT 10SM CLR 10/07 A3028 RMK AO2
KSTF 170315Z AUTO 00000KT 10SM CLR 11/07 A3028 RMK AO2
KSTF 170255Z AUTO 35003KT 10SM CLR 11/08 A3028 RMK AO2
KSTF 170235Z AUTO 00000KT 10SM CLR 11/08 A3027 RMK AO2
KSTF 170215Z AUTO 00000KT 10SM CLR 11/08 A3027 RMK AO2
KSTF 170155Z AUTO 00000KT 10SM CLR 11/08 A3027 RMK AO2
KSTF 170135Z AUTO 35003KT 10SM CLR 13/07 A3027 RMK AO2
KSTF 170115Z AUTO 01004KT 10SM CLR 13/07 A3026 RMK AO2
KSTF 170055Z AUTO 36003KT 10SM CLR 13/07 A3025 RMK AO2
KSTF 170035Z AUTO 00000KT 10SM CLR 14/07 A3024 RMK AO2
KSTF 170015Z AUTO 36003KT 10SM CLR 15/07 A3024 RMK AO2
KSTF 162355Z AUTO 36005KT 10SM CLR 16/07 A3023 RMK AO2
KSTF 162335Z AUTO 01005KT 10SM CLR 16/06 A3022 RMK AO2
KSTF 162315Z AUTO 36004KT 10SM CLR 17/06 A3022 RMK AO2
KSTF 162255Z AUTO 02009G16KT 10SM CLR 18/06 A3022 RMK AO2
KSTF 162235Z AUTO 01009G16KT 10SM CLR 18/06 A3022 RMK AO2
KSTF 162215Z AUTO 01008G15KT 10SM CLR 19/06 A3021 RMK AO2
KSTF 162155Z AUTO 36006G16KT 332V032 10SM CLR 19/06 A3021 RMK AO2
KSTF 162135Z AUTO 01006G15KT 342V042 10SM CLR 20/06 A3021 RMK AO2
KSTF 162115Z AUTO 01007G16KT 10SM CLR 20/06 A3021 RMK AO2
KSTF 162055Z AUTO 01006G15KT 332V032 10SM CLR 20/06 A3021 RMK AO2
KSTF 162035Z AUTO 36008G15KT 10SM CLR 20/07 A3021 RMK AO2
KSTF 162015Z AUTO 01009G17KT 10SM CLR 20/07 A3021 RMK AO2
KSTF 161955Z AUTO 01008G15KT 10SM CLR 20/07 A3023 RMK AO2
KSTF 161935Z AUTO 34008G14KT 302V012 10SM CLR 19/07 A3023 RMK AO2
KSTF 161915Z AUTO 01009KT 322V032 10SM CLR 19/07 A3024 RMK AO2
KSTF 161855Z AUTO 01008G16KT 10SM CLR 19/07 A3025 RMK AO2
KSTF 161835Z AUTO 01009G15KT 332V042 10SM CLR 18/07 A3026 RMK AO2
KSTF 161815Z AUTO 36006KT 10SM CLR 18/08 A3027 RMK AO2
KSTF 161755Z AUTO 34009G14KT 10SM CLR 17/07 A3028 RMK AO2
KSTF 161735Z AUTO 36009G14KT 332V042 10SM CLR 17/07 A3029 RMK AO2
KSTF 161715Z AUTO 01009G19KT 10SM CLR 17/08 A3030 RMK AO2
KSTF 161655Z AUTO 35007KT 10SM CLR 16/08 A3030 RMK AO2
KSTF 161635Z AUTO 01010G15KT 332V052 10SM CLR 16/08 A3030 RMK AO2
KSTF 161615Z AUTO 02012G15KT 10SM CLR 15/08 A3031 RMK AO2
KSTF 161555Z AUTO 02011G17KT 10SM CLR 15/08 A3031 RMK AO2
KSTF 161535Z AUTO 03010G16KT 10SM CLR 14/08 A3030 RMK AO2
KSTF 161515Z AUTO 03008G15KT 10SM CLR 13/08 A3031 RMK AO2
KSTF 161455Z AUTO 02009G16KT 10SM CLR 13/08 A3030 RMK AO2
KSTF 161435Z AUTO 01012G17KT 10SM SCT019 12/08 A3030 RMK AO2
KSTF 161415Z AUTO 01008G14KT 332V042 10SM SCT019 11/08 A3030 RMK AO2
KSTF 161355Z AUTO 01009G14KT 332V032 10SM CLR 11/08 A3029 RMK AO2
KSTF 161335Z AUTO 02008KT 10SM CLR 11/08 A3029 RMK AO2
KSTF 161315Z AUTO 01006KT 10SM CLR 10/08 A3028 RMK AO2
KSTF 161255Z AUTO 36004KT 10SM CLR 10/08 A3028 RMK AO2
KSTF 161235Z AUTO 36003KT 10SM CLR 10/08 A3028 RMK AO2
KSTF 161215Z AUTO 00000KT 10SM CLR 10/08 A3027 RMK AO2
KSTF 161155Z AUTO 35003KT 10SM CLR 10/08 A3026 RMK AO2
KSTF 161135Z AUTO 36004KT 10SM CLR 10/08 A3026 RMK AO2
KSTF 161115Z AUTO 01005KT 10SM CLR 10/09 A3024 RMK AO2
KSTF 161055Z AUTO 36004KT 10SM CLR 11/09 A3024 RMK AO2
KSTF 161035Z AUTO 36003KT 10SM CLR 11/09 A3023 RMK AO2
KSTF 161015Z AUTO 01005KT 10SM CLR 11/09 A3023 RMK AO2
KSTF 160955Z AUTO 01005KT 10SM CLR 11/10 A3022 RMK AO2
KSTF 160935Z AUTO 01006KT 10SM CLR 11/10 A3022 RMK AO2
KSTF 160915Z AUTO 36005KT 10SM CLR 11/10 A3021 RMK AO2
KSTF 160855Z AUTO 36006KT 10SM CLR 12/10 A3021 RMK AO2
KSTF 160835Z AUTO 01006KT 10SM CLR 12/10 A3022 RMK AO2
KSTF 160815Z AUTO 01009KT 10SM CLR 12/10 A3022 RMK AO2
KSTF 160755Z AUTO 01006KT 10SM CLR 12/11 A3022 RMK AO2
KSTF 160735Z AUTO 36009G15KT 10SM CLR 13/11 A3022 RMK AO2
KSTF 160715Z AUTO 01007KT 10SM CLR 13/11 A3022 RMK AO2
KSTF 160655Z AUTO 01007G14KT 322V042 10SM CLR 13/11 A3021 RMK AO2